Terminal Aerodrome Forecast
Issued by NWS North Platte, NE

Home | Current Version | Previous Version | Text Only | Print | Product List | Glossary On
Versions: 1 2 3 4 5 6 7 8 9 10 11 12
000
FTUS43 KLBF 260500
TAFVTN
TAF
KVTN 260524Z 2606/2706 13008KT P6SM SKC
     FM261200 18006KT P6SM SCT250
     FM261800 28012G16KT P6SM SCT250
     FM270000 32005KT P6SM SCT250=

USA.gov is the U.S. government's official web portal to all federal, state and local government web resources and services.